Time;durP1;ratioP1;P1;durP2;ratioP2;P2;SDS_P1;SDS_P2;PMS_P1;PMS_P2;Temp;Humidity;BMP_temperature;BMP_pressure;BME280_temperature;BME280_humidity;BME280_pressure;Samples;Min_cycle;Max_cycle;Signal;HPM_P1;HPM_P2
2021/06/06 00:01:08;;;;;;;15.08;10.85;;;;;;;14.54;59.82;100594.09;2156756;82;31554;-63
2021/06/06 00:04:19;;;;;;;12.20;9.58;;;;;;;14.48;59.96;100584.53;2157015;82;33134;-62
2021/06/06 00:07:21;;;;;;;12.18;9.68;;;;;;;14.39;60.10;100586.45;2143480;82;30054;-62
2021/06/06 00:10:24;;;;;;;12.70;9.83;;;;;;;14.33;60.23;100593.09;2156937;82;27609;-63
2021/06/06 00:13:27;;;;;;;10.58;8.50;;;;;;;14.27;60.45;100591.64;2151491;82;28714;-62
2021/06/06 00:16:34;;;;;;;12.07;9.68;;;;;;;14.22;60.40;100592.39;2116868;83;33178;-63
2021/06/06 00:19:36;;;;;;;13.10;9.78;;;;;;;14.18;60.50;100594.02;2116176;83;33009;-63
2021/06/06 00:22:39;;;;;;;13.65;10.00;;;;;;;14.13;60.95;100594.30;2151643;82;30570;-63
2021/06/06 00:25:41;;;;;;;12.13;8.93;;;;;;;14.10;61.57;100595.83;2152986;81;27596;-63
2021/06/06 00:28:43;;;;;;;10.65;9.18;;;;;;;14.10;61.40;100598.52;2152466;81;29926;-62
2021/06/06 00:31:46;;;;;;;9.95;8.73;;;;;;;14.09;61.51;100589.55;2152970;81;31887;-62
2021/06/06 00:34:48;;;;;;;10.55;8.88;;;;;;;14.08;61.52;100591.86;2139280;82;33241;-62
2021/06/06 00:37:51;;;;;;;15.15;10.08;;;;;;;14.06;61.57;100591.11;2116205;83;30623;-62
2021/06/06 00:40:56;;;;;;;12.43;8.53;;;;;;;14.05;61.64;100589.37;2116611;82;28122;-62
2021/06/06 00:43:59;;;;;;;12.07;8.38;;;;;;;14.04;61.84;100590.34;2100912;84;29316;-62
2021/06/06 00:47:01;;;;;;;9.58;8.53;;;;;;;14.02;61.94;100590.90;2116251;84;32073;-62
2021/06/06 00:50:08;;;;;;;11.12;8.23;;;;;;;14.01;61.92;100586.93;2135922;82;33473;-62
2021/06/06 00:53:24;;;;;;;8.80;7.90;;;;;;;14.00;62.26;100590.13;2136334;82;29347;-62
2021/06/06 00:56:27;;;;;;;10.58;9.10;;;;;;;14.00;62.23;100588.77;2153314;82;27728;-63
2021/06/06 00:59:29;;;;;;;10.28;9.20;;;;;;;13.99;62.26;100591.08;2139888;82;29524;-62
2021/06/06 01:02:31;;;;;;;9.40;8.13;;;;;;;13.95;62.23;100593.09;2116444;84;32209;-63
2021/06/06 01:05:44;;;;;;;13.60;8.68;;;;;;;13.93;62.35;100590.08;2116155;83;34351;-62
2021/06/06 01:08:45;;;;;;;12.88;9.63;;;;;;;13.90;62.35;100593.83;2118620;82;29760;-63
2021/06/06 01:12:24;;;;;;;10.85;8.33;;;;;;;13.86;62.48;100591.42;2116720;83;27685;-63
2021/06/06 01:15:31;;;;;;;8.73;7.65;;;;;;;13.82;62.39;100592.05;2154782;81;29862;-63
2021/06/06 01:18:39;;;;;;;10.20;8.83;;;;;;;13.77;62.48;100588.78;2142310;82;31041;-63
2021/06/06 01:21:52;;;;;;;9.85;8.03;;;;;;;13.71;62.63;100589.13;2169859;82;33142;-63
2021/06/06 01:25:09;;;;;;;11.45;8.63;;;;;;;13.65;62.60;100593.91;2115999;83;30261;-63
2021/06/06 01:28:25;;;;;;;10.93;9.13;;;;;;;13.60;62.60;100595.13;2133179;83;27677;-63
2021/06/06 01:31:27;;;;;;;9.48;8.05;;;;;;;13.53;62.79;100595.97;2134914;83;28691;-62
2021/06/06 01:34:29;;;;;;;11.70;8.88;;;;;;;13.47;62.89;100595.84;2135456;82;31903;-63
2021/06/06 01:37:32;;;;;;;12.47;8.35;;;;;;;13.42;63.03;100594.38;2135122;82;33599;-62
2021/06/06 01:40:36;;;;;;;11.00;8.00;;;;;;;13.35;63.40;100595.17;2134492;83;29845;-63
2021/06/06 01:43:42;;;;;;;9.67;7.97;;;;;;;13.31;63.50;100593.61;2156612;82;27636;-63
2021/06/06 01:46:55;;;;;;;10.98;8.63;;;;;;;13.26;63.40;100590.30;2171989;82;28660;-63
2021/06/06 01:50:05;;;;;;;10.08;8.43;;;;;;;13.21;63.64;100594.14;2124533;83;32743;-63
2021/06/06 01:53:08;;;;;;;13.68;8.90;;;;;;;13.16;63.89;100596.20;2157458;82;35092;-63
2021/06/06 01:56:11;;;;;;;10.78;8.28;;;;;;;13.14;64.01;100594.56;2171662;82;30133;-63
2021/06/06 01:59:31;;;;;;;11.35;8.68;;;;;;;13.10;64.26;100599.22;2172008;82;27735;-63
2021/06/06 02:02:33;;;;;;;12.65;8.58;;;;;;;13.09;64.67;100593.94;2091788;83;28834;-63
2021/06/06 02:05:35;;;;;;;9.28;8.33;;;;;;;13.10;64.96;100595.19;2134724;83;32017;-63
2021/06/06 02:08:38;;;;;;;12.90;9.28;;;;;;;13.11;65.48;100592.89;2136689;82;33755;-63
2021/06/06 02:11:47;;;;;;;11.73;8.58;;;;;;;13.13;65.32;100595.02;2135095;83;29331;-63
2021/06/06 02:14:50;;;;;;;11.55;8.83;;;;;;;13.11;65.29;100594.23;2168564;81;27648;-62
2021/06/06 02:17:57;;;;;;;13.28;8.83;;;;;;;13.08;65.25;100601.12;2133265;83;29725;-62
2021/06/06 02:20:59;;;;;;;13.10;8.38;;;;;;;13.05;65.28;100601.32;2133532;83;31827;-62
2021/06/06 02:24:01;;;;;;;12.78;9.33;;;;;;;13.01;65.04;100606.47;2123495;83;34135;-63
2021/06/06 02:27:08;;;;;;;11.65;9.10;;;;;;;12.98;65.21;100602.59;2081796;84;29985;-63
2021/06/06 02:30:30;;;;;;;11.38;9.08;;;;;;;12.93;65.12;100604.20;2098005;84;28306;-63
2021/06/06 02:33:49;;;;;;;12.23;9.60;;;;;;;12.91;65.28;100599.37;2122300;83;28664;-63
2021/06/06 02:37:11;;;;;;;12.98;9.85;;;;;;;12.88;65.40;100596.39;2133145;83;30868;-63
2021/06/06 02:40:21;;;;;;;13.95;10.82;;;;;;;12.86;65.35;100600.09;2123680;83;33025;-63
2021/06/06 02:43:34;;;;;;;11.38;10.18;;;;;;;12.82;65.38;100598.06;2133484;83;29434;-63
2021/06/06 02:46:38;;;;;;;11.85;10.03;;;;;;;12.79;65.39;100606.78;2132977;83;27605;-62
2021/06/06 02:49:43;;;;;;;14.98;10.23;;;;;;;12.75;65.51;100607.39;2133838;83;29476;-62
2021/06/06 02:53:02;;;;;;;12.10;10.47;;;;;;;12.72;65.68;100607.59;2114419;83;31077;-63
2021/06/06 02:56:08;;;;;;;13.00;10.05;;;;;;;12.67;65.70;100606.95;2130244;83;33131;-63
2021/06/06 02:59:21;;;;;;;12.95;9.33;;;;;;;12.66;65.75;100613.28;2133858;83;29552;-63
2021/06/06 03:02:31;;;;;;;14.03;9.50;;;;;;;12.63;65.91;100614.78;2134424;82;27702;-63
2021/06/06 03:05:34;;;;;;;14.45;11.08;;;;;;;12.61;65.87;100617.56;2132902;83;28646;-62
2021/06/06 03:08:36;;;;;;;12.95;10.40;;;;;;;12.61;66.20;100618.91;2133596;83;31830;-61
2021/06/06 03:11:42;;;;;;;13.40;10.70;;;;;;;12.64;66.33;100625.93;2134050;82;33291;-61
2021/06/06 03:14:44;;;;;;;;;;;;;;;12.66;66.48;100622.20;2136310;83;29685;-62
2021/06/06 03:17:50;;;;;;;12.07;10.48;;;;;;;12.71;66.49;100621.48;2133397;81;27748;-62
2021/06/06 03:20:55;;;;;;;12.85;10.55;;;;;;;12.74;66.52;100621.81;2098865;83;28644;-62
2021/06/06 03:24:04;;;;;;;12.60;9.95;;;;;;;12.78;66.60;100627.89;2098029;84;31019;-63
2021/06/06 03:27:09;;;;;;;11.78;10.53;;;;;;;12.82;66.65;100624.09;2096862;84;34075;-63
2021/06/06 03:30:34;;;;;;;11.57;9.95;;;;;;;12.84;66.64;100617.67;2097931;84;29356;-63
2021/06/06 03:33:46;;;;;;;12.50;10.68;;;;;;;12.90;66.71;100619.16;2128856;83;27693;-63
2021/06/06 03:36:49;;;;;;;12.13;9.90;;;;;;;12.97;66.71;100623.72;2133820;82;28664;-63
2021/06/06 03:39:55;;;;;;;11.20;9.10;;;;;;;13.05;66.73;100625.53;2133751;82;31043;-63
2021/06/06 03:42:57;;;;;;;12.68;10.68;;;;;;;13.13;66.66;100622.42;2124792;83;34009;-63
2021/06/06 03:45:58;;;;;;;13.50;10.80;;;;;;;13.22;66.80;100628.62;2115075;83;30410;-63
2021/06/06 03:49:01;;;;;;;15.38;10.82;;;;;;;13.31;66.86;100621.40;2097533;84;27686;-63
2021/06/06 03:52:05;;;;;;;12.30;11.03;;;;;;;13.43;66.89;100622.53;2098473;84;28666;-63
2021/06/06 03:55:11;;;;;;;15.70;11.88;;;;;;;13.51;66.82;100624.33;2070712;85;31982;-62
2021/06/06 03:58:15;;;;;;;13.80;10.78;;;;;;;13.63;66.85;100621.88;2051952;84;33761;-63
2021/06/06 04:01:18;;;;;;;17.05;10.88;;;;;;;13.73;66.74;100625.80;2117296;84;29499;-63
2021/06/06 04:04:21;;;;;;;11.97;10.43;;;;;;;13.85;66.93;100626.04;2117386;84;27645;-63
2021/06/06 04:07:22;;;;;;;13.48;11.18;;;;;;;13.93;66.89;100624.63;2116490;84;29129;-63
2021/06/06 04:10:27;;;;;;;12.58;10.75;;;;;;;14.04;66.89;100629.39;2106947;84;31936;-63
2021/06/06 04:13:30;;;;;;;12.58;10.63;;;;;;;14.13;66.89;100622.59;2108459;84;32988;-63
2021/06/06 04:16:33;;;;;;;13.22;10.88;;;;;;;14.23;66.87;100627.81;2116848;82;30263;-62
2021/06/06 04:19:35;;;;;;;15.58;11.38;;;;;;;14.36;66.86;100627.06;2117257;84;28377;-62
2021/06/06 04:22:37;;;;;;;13.50;11.50;;;;;;;14.48;66.79;100629.01;2111682;84;29866;-63
2021/06/06 04:25:40;;;;;;;15.78;12.28;;;;;;;14.61;66.61;100628.28;2104962;84;32236;-62
2021/06/06 04:28:42;;;;;;;14.83;12.23;;;;;;;14.73;66.34;100627.05;2104950;84;33993;-63
2021/06/06 04:31:45;;;;;;;15.85;13.32;;;;;;;14.88;66.28;100633.34;2113372;83;29739;-62
2021/06/06 04:34:48;;;;;;;14.13;12.65;;;;;;;15.06;66.14;100629.10;2133602;83;27629;-63
2021/06/06 04:37:50;;;;;;;13.98;10.98;;;;;;;15.23;65.93;100632.06;2125656;82;28109;-63
2021/06/06 04:40:55;;;;;;;13.45;9.98;;;;;;;15.41;65.86;100634.54;2097649;84;31027;-62
2021/06/06 04:43:57;;;;;;;14.07;9.88;;;;;;;15.90;66.06;100629.14;2105419;84;32409;-62
2021/06/06 04:46:59;;;;;;;10.40;9.08;;;;;;;17.01;65.97;100624.72;2097151;84;31567;-62
2021/06/06 04:50:01;;;;;;;12.18;8.68;;;;;;;18.33;64.62;100621.80;2128680;83;27699;-63
2021/06/06 04:53:03;;;;;;;13.28;10.05;;;;;;;19.68;63.28;100616.05;2131972;82;29904;-63
2021/06/06 04:56:07;;;;;;;12.45;8.75;;;;;;;21.00;60.94;100617.16;2133326;82;31873;-63
2021/06/06 04:59:12;;;;;;;10.38;7.62;;;;;;;22.16;59.33;100615.34;2134399;83;32960;-61
2021/06/06 05:02:13;;;;;;;9.85;7.80;;;;;;;23.35;56.84;100612.67;2086650;85;33559;-63
2021/06/06 05:05:15;;;;;;;8.50;7.55;;;;;;;24.28;55.27;100610.25;2073146;85;27659;-63
2021/06/06 05:08:20;;;;;;;8.00;6.55;;;;;;;25.14;53.41;100610.49;2077641;85;28696;-66
2021/06/06 05:11:22;;;;;;;8.00;7.20;;;;;;;25.99;52.90;100614.17;2062887;85;31025;-66
2021/06/06 05:14:23;;;;;;;9.58;7.20;;;;;;;26.80;50.49;100618.00;2044275;87;32985;-64
2021/06/06 05:17:25;;;;;;;8.93;7.40;;;;;;;27.54;48.51;100616.02;2053542;86;30134;-65
2021/06/06 05:20:33;;;;;;;9.30;7.30;;;;;;;28.07;47.48;100617.55;2091351;84;27735;-65
2021/06/06 05:23:35;;;;;;;7.72;7.08;;;;;;;28.55;46.09;100609.60;2101636;84;29498;-66
2021/06/06 05:26:36;;;;;;;7.15;6.50;;;;;;;29.21;44.89;100611.66;2095861;84;31031;-66
2021/06/06 05:29:38;;;;;;;8.00;7.17;;;;;;;29.81;43.85;100613.80;2076622;84;33104;-65
2021/06/06 05:32:40;;;;;;;8.43;6.97;;;;;;;30.36;43.02;100619.38;2063301;84;29364;-65
2021/06/06 05:35:42;;;;;;;11.85;7.45;;;;;;;30.80;41.79;100620.16;2061528;86;27735;-64
2021/06/06 05:38:44;;;;;;;8.10;7.30;;;;;;;31.16;40.77;100618.62;2061464;86;28647;-65
2021/06/06 05:41:46;;;;;;;8.20;7.28;;;;;;;31.47;39.67;100621.41;2063582;84;31871;-65
2021/06/06 05:44:48;;;;;;;7.90;7.08;;;;;;;31.88;38.90;100621.55;2061413;86;32977;-65
2021/06/06 05:47:50;;;;;;;8.28;7.47;;;;;;;32.35;37.46;100624.43;2061261;84;29597;-66
2021/06/06 05:50:56;;;;;;;8.85;6.97;;;;;;;32.48;36.81;100623.04;2065779;84;27714;-65
2021/06/06 05:53:58;;;;;;;8.70;6.95;;;;;;;32.74;36.25;100624.10;2067388;84;29565;-65
2021/06/06 05:57:00;;;;;;;7.87;6.78;;;;;;;32.99;34.63;100632.63;2079307;84;31883;-65
2021/06/06 06:00:07;;;;;;;8.18;6.92;;;;;;;33.00;34.93;100616.30;2095423;84;32979;-65
2021/06/06 06:03:09;;;;;;;7.62;6.65;;;;;;;33.39;34.39;100621.95;2094011;84;30139;-65
2021/06/06 06:06:11;;;;;;;9.88;6.53;;;;;;;33.77;33.50;100618.33;2171949;81;27696;-65
2021/06/06 06:09:13;;;;;;;7.35;6.75;;;;;;;33.94;32.85;100622.00;2171887;82;29663;-65
2021/06/06 06:12:15;;;;;;;7.87;7.25;;;;;;;34.24;32.82;100618.59;2172464;81;31013;-65
2021/06/06 06:15:17;;;;;;;7.90;7.10;;;;;;;34.62;32.31;100626.55;2175085;81;33730;-64
2021/06/06 06:18:25;;;;;;;7.83;7.10;;;;;;;34.89;32.08;100630.45;2176766;81;30089;-65
2021/06/06 06:21:28;;;;;;;7.35;6.67;;;;;;;35.24;31.30;100622.39;2178137;81;27745;-66
2021/06/06 06:24:30;;;;;;;7.83;7.12;;;;;;;35.40;30.53;100622.84;2179003;81;29600;-65
2021/06/06 06:27:33;;;;;;;8.38;7.58;;;;;;;35.40;30.25;100626.45;2178829;81;30996;-64
2021/06/06 06:30:38;;;;;;;8.73;8.00;;;;;;;35.74;30.54;100628.84;2178463;81;33127;-64
2021/06/06 06:33:41;;;;;;;9.93;7.80;;;;;;;36.08;29.52;100633.39;2178612;81;29331;-65
2021/06/06 06:36:43;;;;;;;7.67;6.87;;;;;;;36.18;29.11;100632.81;2178631;81;27748;-65
2021/06/06 06:39:46;;;;;;;8.25;7.45;;;;;;;36.41;29.34;100633.95;2177175;81;28814;-65
2021/06/06 06:42:49;;;;;;;;;;;;;;;36.71;28.60;100625.52;2180322;81;31043;-65
2021/06/06 06:45:51;;;;;;;8.23;7.50;;;;;;;36.75;27.97;100624.48;2177586;81;33867;-65
2021/06/06 06:48:54;;;;;;;8.20;7.40;;;;;;;36.80;27.69;100623.21;2176352;81;29311;-65
2021/06/06 06:51:56;;;;;;;7.40;6.80;;;;;;;36.85;27.68;100621.08;2133676;83;27710;-66
2021/06/06 06:54:58;;;;;;;8.88;7.22;;;;;;;36.73;26.25;100619.68;2133653;83;28644;-62
2021/06/06 06:58:01;;;;;;;8.58;6.65;;;;;;;36.59;26.73;100633.02;2110579;84;32014;-65
2021/06/06 07:01:03;;;;;;;8.45;6.22;;;;;;;36.44;26.68;100627.37;2075947;85;33055;-66
2021/06/06 07:04:06;;;;;;;7.60;6.55;;;;;;;36.62;26.29;100626.43;2075689;85;29342;-65
2021/06/06 07:07:08;;;;;;;7.25;6.55;;;;;;;36.60;26.56;100641.17;2076401;84;27648;-65
2021/06/06 07:10:14;;;;;;;12.05;10.63;;;;;;;36.72;26.25;100641.71;2094485;84;28679;-64
2021/06/06 07:13:16;;;;;;;8.13;7.33;;;;;;;36.93;26.04;100636.95;2110043;84;31049;-64
2021/06/06 07:16:20;;;;;;;6.92;6.30;;;;;;;37.00;25.39;100629.84;2104985;82;33923;-67
2021/06/06 07:19:22;;;;;;;7.30;6.60;;;;;;;36.72;24.88;100623.56;2080902;85;29425;-64
2021/06/06 07:22:24;;;;;;;6.78;6.08;;;;;;;36.67;25.30;100629.88;2082141;84;27535;-70
2021/06/06 07:25:26;;;;;;;8.08;7.15;;;;;;;36.62;25.43;100629.75;2081785;85;29486;-64
2021/06/06 07:28:30;;;;;;;7.72;6.92;;;;;;;36.75;25.19;100623.08;2081856;85;31058;-64
2021/06/06 07:31:32;;;;;;;11.38;6.72;;;;;;;36.75;24.83;100624.48;2093319;84;33770;-64
2021/06/06 07:34:33;;;;;;;9.28;7.03;;;;;;;36.60;25.01;100623.03;2114667;84;30156;-64
2021/06/06 07:37:35;;;;;;;9.75;7.15;;;;;;;36.49;25.27;100623.32;2105699;84;27760;-63
2021/06/06 07:40:42;;;;;;;7.33;6.62;;;;;;;36.49;25.09;100623.84;2108556;84;28746;-65
2021/06/06 07:43:44;;;;;;;7.12;6.53;;;;;;;36.51;25.45;100631.44;2113090;84;32018;-65
2021/06/06 07:46:45;;;;;;;6.22;5.62;;;;;;;36.65;25.30;100627.31;2079999;84;33760;-61
2021/06/06 07:49:48;;;;;;;7.08;6.37;;;;;;;36.61;24.65;100632.23;2079381;85;29389;-63
2021/06/06 07:52:50;;;;;;;9.08;6.12;;;;;;;36.51;24.52;100637.02;2074439;85;27772;-64
2021/06/06 07:55:54;;;;;;;7.08;5.08;;;;;;;36.47;25.51;100629.69;2055789;86;28724;-64
2021/06/06 07:58:56;;;;;;;6.42;5.60;;;;;;;36.53;24.93;100630.66;2126942;83;31011;-64
2021/06/06 08:01:58;;;;;;;6.53;5.72;;;;;;;36.43;24.92;100635.41;2126073;83;32951;-64
2021/06/06 08:05:01;;;;;;;6.53;5.92;;;;;;;36.53;25.31;100636.80;2171813;81;29325;-64
2021/06/06 08:08:04;;;;;;;;;;;;;;;36.63;25.02;100634.24;2174622;82;27732;-64
2021/06/06 08:11:08;;;;;;;6.17;5.58;;;;;;;36.47;24.26;100633.87;2171428;81;28651;-63
2021/06/06 08:14:10;;;;;;;6.78;6.05;;;;;;;36.28;24.44;100639.20;2171161;82;31120;-64
2021/06/06 08:17:12;;;;;;;8.50;5.83;;;;;;;36.10;24.56;100633.17;2170673;81;32966;-64
2021/06/06 08:20:19;;;;;;;6.97;5.03;;;;;;;36.01;24.38;100627.91;2144884;82;29346;-64
2021/06/06 08:23:22;;;;;;;6.25;5.28;;;;;;;35.93;24.41;100630.16;2113537;83;27636;-64
2021/06/06 08:26:26;;;;;;;5.08;4.67;;;;;;;35.82;24.45;100631.28;2060961;84;28756;-65
2021/06/06 08:29:27;;;;;;;5.15;4.75;;;;;;;35.74;24.26;100634.42;2084643;84;31876;-66
2021/06/06 08:32:29;;;;;;;5.62;5.12;;;;;;;35.61;24.07;100635.97;2095349;84;33764;-68
2021/06/06 08:35:31;;;;;;;8.40;4.95;;;;;;;35.58;23.99;100635.91;2095216;84;30151;-67
2021/06/06 08:38:34;;;;;;;5.87;5.33;;;;;;;35.58;24.44;100638.14;2171180;82;27776;-72
2021/06/06 08:41:46;;;;;;;5.67;5.17;;;;;;;35.66;24.12;100637.52;2172166;82;28659;-71
2021/06/06 08:45:14;;;;;;;6.30;5.25;;;;;;;35.72;24.20;100631.85;2171776;82;31272;-65
2021/06/06 08:48:19;;;;;;;7.50;5.33;;;;;;;35.36;23.56;100625.77;2143790;82;32984;-65
2021/06/06 08:51:54;;;;;;;5.35;4.85;;;;;;;35.00;24.38;100632.48;2149276;82;29329;-74
2021/06/06 08:55:30;;;;;;;5.83;5.00;;;;;;;34.98;24.36;100630.50;2134992;83;27730;-70
2021/06/06 08:58:49;;;;;;;6.28;5.78;;;;;;;35.01;24.61;100629.18;2134820;82;28657;-62
2021/06/06 09:02:05;;;;;;;7.97;5.03;;;;;;;34.93;24.50;100619.16;2123304;82;32522;-60
2021/06/06 09:05:10;;;;;;;4.80;4.25;;;;;;;34.77;24.52;100625.64;2143315;81;32993;-61
2021/06/06 09:08:21;;;;;;;5.17;4.62;;;;;;;34.53;24.78;100616.24;2172341;81;29334;-60
2021/06/06 09:11:25;;;;;;;7.08;4.90;;;;;;;34.25;24.30;100623.09;2134960;83;27733;-62
2021/06/06 09:14:28;;;;;;;6.60;5.30;;;;;;;33.64;24.46;100621.19;2134889;83;28703;-64
2021/06/06 09:17:44;;;;;;;5.17;4.45;;;;;;;33.16;24.80;100616.33;2135228;82;31275;-62
2021/06/06 09:20:47;;;;;;;5.83;4.58;;;;;;;32.56;25.31;100606.71;2110096;84;33827;-61
2021/06/06 09:23:52;;;;;;;5.03;4.50;;;;;;;32.03;25.58;100618.61;2096306;84;30124;-68
2021/06/06 09:26:53;;;;;;;12.10;4.37;;;;;;;31.61;26.05;100607.61;2082307;85;27810;-61
2021/06/06 09:30:19;;;;;;;4.55;4.15;;;;;;;31.42;26.31;100613.41;2111336;84;29066;-62
2021/06/06 09:33:31;;;;;;;4.60;4.20;;;;;;;31.24;26.49;100615.33;2116788;84;31192;-62
2021/06/06 09:36:47;;;;;;;4.45;3.52;;;;;;;31.06;26.53;100612.55;2098795;84;32987;-61
2021/06/06 09:40:10;;;;;;;3.90;3.62;;;;;;;30.84;26.49;100602.09;2114462;84;29697;-60
2021/06/06 09:43:33;;;;;;;4.33;3.80;;;;;;;30.74;26.79;100609.38;2070066;86;27732;-60
2021/06/06 09:46:40;;;;;;;6.65;4.28;;;;;;;30.53;26.43;100606.11;2013926;88;29590;-61
2021/06/06 09:49:51;;;;;;;4.62;4.20;;;;;;;30.28;26.88;100610.70;2071668;85;29985;-61
2021/06/06 09:52:53;;;;;;;4.62;3.65;;;;;;;30.00;27.05;100610.98;2010054;88;32970;-61
2021/06/06 09:56:24;;;;;;;5.60;3.65;;;;;;;29.73;27.09;100605.66;2026750;85;30579;-61
2021/06/06 09:59:32;;;;;;;4.47;4.08;;;;;;;29.43;27.75;100604.87;2064272;86;27910;-62
2021/06/06 10:02:57;;;;;;;6.30;3.77;;;;;;;29.16;28.41;100601.74;2003874;87;29935;-64
2021/06/06 10:06:16;;;;;;;4.35;3.80;;;;;;;29.21;28.59;100597.36;1997396;89;31436;-61
2021/06/06 10:09:26;;;;;;;4.95;4.20;;;;;;;29.14;28.43;100599.16;1998710;89;33127;-60
2021/06/06 10:12:34;;;;;;;5.80;3.98;;;;;;;29.14;28.48;100594.18;1998898;87;30896;-61
2021/06/06 10:15:49;;;;;;;6.05;5.08;;;;;;;29.04;28.39;100593.09;1999177;89;28072;-60
2021/06/06 10:19:13;;;;;;;4.50;3.77;;;;;;;29.08;28.27;100588.91;2008234;86;29737;-60
2021/06/06 10:22:28;;;;;;;4.40;3.55;;;;;;;29.07;28.32;100582.52;2048948;86;31065;-61
2021/06/06 10:25:57;;;;;;;4.50;3.30;;;;;;;28.97;28.09;100590.24;2048315;86;34191;-61
2021/06/06 10:29:33;;;;;;;3.77;3.47;;;;;;;28.76;28.23;100586.87;2047002;86;30529;-61
2021/06/06 10:32:45;;;;;;;4.15;3.72;;;;;;;28.73;28.61;100587.20;1984582;89;27857;-61
2021/06/06 10:35:49;;;;;;;4.95;3.15;;;;;;;28.69;28.39;100585.36;1984485;89;28860;-67
2021/06/06 10:38:51;;;;;;;4.03;3.27;;;;;;;28.62;28.83;100583.01;1985411;88;31040;-64
2021/06/06 10:42:01;;;;;;;4.55;2.77;;;;;;;28.59;28.81;100584.25;1985935;88;34224;-66
2021/06/06 10:45:39;;;;;;;5.83;3.10;;;;;;;28.41;28.11;100593.39;2010115;87;29348;-65
2021/06/06 10:49:05;;;;;;;5.30;4.80;;;;;;;28.29;28.67;100590.22;2009716;87;27862;-62
2021/06/06 10:52:32;;;;;;;7.33;3.83;;;;;;;28.30;28.75;100589.17;2024654;87;30025;-68
2021/06/06 10:55:36;;;;;;;5.10;3.10;;;;;;;28.35;28.56;100593.08;2009267;87;30645;-67
2021/06/06 10:58:58;;;;;;;4.37;3.98;;;;;;;28.32;28.70;100584.34;2055853;85;34194;-64
2021/06/06 11:02:01;;;;;;;3.65;3.02;;;;;;;28.32;28.60;100583.80;2056588;85;30150;-63
2021/06/06 11:05:26;;;;;;;3.67;3.37;;;;;;;28.34;28.76;100583.64;2076320;85;27774;-62
2021/06/06 11:08:34;;;;;;;3.40;3.10;;;;;;;28.38;28.50;100584.11;2084863;83;29561;-61
2021/06/06 11:11:39;;;;;;;4.87;3.45;;;;;;;28.30;28.55;100573.48;2064192;85;31909;-61
2021/06/06 11:14:49;;;;;;;5.05;3.42;;;;;;;28.08;28.23;100579.33;2099779;84;33901;-61
2021/06/06 11:17:52;;;;;;;3.30;3.00;;;;;;;27.94;28.08;100583.77;2101789;84;30159;-61
2021/06/06 11:21:02;;;;;;;3.33;2.87;;;;;;;27.83;27.21;100579.54;2091017;84;27773;-60
2021/06/06 11:24:34;;;;;;;3.30;3.00;;;;;;;27.72;27.67;100573.93;2088870;84;28682;-61
2021/06/06 11:27:52;;;;;;;4.10;2.70;;;;;;;27.66;27.77;100574.65;2080026;84;45572;-61
2021/06/06 11:30:55;;;;;;;3.37;3.08;;;;;;;27.64;27.86;100576.72;1993400;89;33854;-61
2021/06/06 11:34:20;;;;;;;4.42;3.20;;;;;;;27.64;28.27;100565.72;2011818;88;30019;-69
2021/06/06 11:37:34;;;;;;;6.10;3.40;;;;;;;27.66;28.30;100566.39;2004931;88;27812;-62
2021/06/06 11:40:46;;;;;;;3.62;3.33;;;;;;;27.74;27.84;100562.72;2048504;86;29682;-65
2021/06/06 11:44:14;;;;;;;3.60;3.20;;;;;;;27.81;27.59;100565.09;2048325;86;31030;-69
2021/06/06 11:47:37;;;;;;;3.05;2.80;;;;;;;27.87;27.78;100556.62;2040653;86;34239;-64
2021/06/06 11:50:48;;;;;;;3.80;3.33;;;;;;;27.82;27.62;100552.17;1965448;89;30191;-64
2021/06/06 11:53:50;;;;;;;6.62;3.47;;;;;;;27.70;28.04;100558.65;2014942;88;27761;-68
2021/06/06 11:56:58;;;;;;;15.23;9.63;;;;;;;27.66;28.46;100551.78;2009310;88;28168;-64
2021/06/06 12:00:24;;;;;;;4.25;3.85;;;;;;;27.61;28.83;100553.72;2011667;87;31035;-61
2021/06/06 12:03:39;;;;;;;4.03;3.62;;;;;;;27.57;28.89;100552.36;1976806;90;32978;-67
2021/06/06 12:06:44;;;;;;;5.05;2.92;;;;;;;27.48;29.37;100555.69;2020773;85;29334;-66
2021/06/06 12:09:49;;;;;;;4.10;3.35;;;;;;;27.40;29.42;100546.92;2171252;81;27758;-63
2021/06/06 12:12:57;;;;;;;3.40;2.92;;;;;;;27.38;29.51;100537.15;2170639;82;28815;-64
2021/06/06 12:16:17;;;;;;;3.12;2.83;;;;;;;27.35;29.74;100532.84;2126564;83;31029;-72
2021/06/06 12:19:24;;;;;;;4.97;3.15;;;;;;;27.34;29.61;100529.75;2134681;82;33653;-68
2021/06/06 12:22:32;;;;;;;3.72;3.27;;;;;;;27.38;29.77;100531.65;2132280;83;29376;-61
2021/06/06 12:25:36;;;;;;;5.15;3.40;;;;;;;27.33;29.13;100528.04;2134567;83;28243;-68
2021/06/06 12:28:44;;;;;;;5.70;3.45;;;;;;;27.30;29.14;100529.27;2134099;82;29503;-65
2021/06/06 12:31:49;;;;;;;6.78;3.33;;;;;;;27.30;29.20;100530.64;2135994;82;31478;-62
2021/06/06 12:34:51;;;;;;;4.80;2.83;;;;;;;27.29;29.33;100525.34;2154669;82;33416;-61
2021/06/06 12:37:58;;;;;;;3.95;3.50;;;;;;;27.21;29.14;100525.37;2165096;82;29853;-68
2021/06/06 12:41:02;;;;;;;4.05;3.70;;;;;;;27.06;29.12;100529.38;2135083;83;27657;-61
2021/06/06 12:44:07;;;;;;;4.08;3.40;;;;;;;26.90;29.26;100524.83;2134845;83;29852;-62
2021/06/06 12:47:34;;;;;;;3.42;2.95;;;;;;;26.85;29.30;100526.75;2134825;83;31956;-61
2021/06/06 12:50:37;;;;;;;8.53;7.62;;;;;;;26.87;29.20;100520.55;2145042;82;32981;-64
2021/06/06 12:53:40;;;;;;;4.12;3.75;;;;;;;26.92;29.21;100525.52;2165925;82;29950;-61
2021/06/06 12:56:41;;;;;;;4.45;3.10;;;;;;;26.91;28.79;100520.52;2152209;82;27616;-61
2021/06/06 12:59:45;;;;;;;5.10;2.90;;;;;;;26.93;29.02;100522.57;2134595;83;29672;-71
2021/06/06 13:02:48;;;;;;;3.70;2.85;;;;;;;27.00;29.66;100515.84;2134736;83;30999;-71
2021/06/06 13:05:54;;;;;;;9.50;8.40;;;;;;;27.09;29.55;100512.53;2134449;83;33763;-61
2021/06/06 13:09:10;;;;;;;3.72;3.30;;;;;;;27.12;29.34;100519.05;2135215;82;29338;-60
2021/06/06 13:12:33;;;;;;;4.53;2.95;;;;;;;27.12;29.03;100517.17;2126085;82;27754;-62
2021/06/06 13:15:40;;;;;;;3.72;3.40;;;;;;;27.03;28.84;100522.36;2142298;82;28752;-66
2021/06/06 13:18:41;;;;;;;3.42;2.80;;;;;;;26.95;29.07;100519.13;2143680;82;31661;-62
2021/06/06 13:21:52;;;;;;;3.47;3.10;;;;;;;26.81;28.81;100519.88;2107278;83;34213;-72
2021/06/06 13:24:55;;;;;;;3.17;2.87;;;;;;;26.67;28.64;100526.42;2132113;83;30142;-64
2021/06/06 13:27:57;;;;;;;5.37;3.45;;;;;;;26.60;28.85;100514.95;2133380;83;27709;-63
2021/06/06 13:31:22;;;;;;;3.80;2.85;;;;;;;26.60;29.13;100508.92;2115380;83;28687;-60
2021/06/06 13:34:24;;;;;;;5.33;2.80;;;;;;;26.65;29.19;100513.38;2105366;84;32231;-61
2021/06/06 13:37:29;;;;;;;4.67;3.00;;;;;;;26.71;29.12;100516.46;2009814;87;34166;-66
2021/06/06 13:40:38;;;;;;;3.62;3.10;;;;;;;26.75;28.93;100509.05;2035432;87;29599;-69
2021/06/06 13:43:41;;;;;;;3.50;2.90;;;;;;;26.81;29.04;100513.84;2036106;87;27747;-63
2021/06/06 13:46:45;;;;;;;2.70;2.50;;;;;;;26.88;28.93;100510.41;2105308;84;29500;-64
2021/06/06 13:49:47;;;;;;;3.20;2.90;;;;;;;26.95;28.95;100509.50;2090261;84;31183;-64
2021/06/06 13:52:51;;;;;;;3.05;2.75;;;;;;;27.03;29.03;100503.64;2080804;85;34398;-70
2021/06/06 13:55:55;;;;;;;5.85;3.33;;;;;;;27.11;28.95;100506.33;2083183;84;29329;-61
2021/06/06 13:58:57;;;;;;;4.70;3.10;;;;;;;27.13;29.13;100504.27;2070442;86;27737;-60
2021/06/06 14:01:59;;;;;;;3.87;3.15;;;;;;;27.15;29.25;100498.06;2070762;86;29427;-61
2021/06/06 14:05:01;;;;;;;2.80;2.55;;;;;;;27.22;28.92;100502.33;2100338;83;31443;-61
2021/06/06 14:08:05;;;;;;;4.30;3.47;;;;;;;27.23;28.81;100501.29;2105077;83;34184;-61
2021/06/06 14:11:15;;;;;;;3.58;3.20;;;;;;;27.25;29.05;100500.59;2098092;83;29325;-61
2021/06/06 14:14:17;;;;;;;9.68;3.50;;;;;;;27.29;29.11;100488.20;2097891;84;27724;-61
2021/06/06 14:17:19;;;;;;;3.47;2.77;;;;;;;27.27;28.94;100494.39;2110746;83;29976;-62
2021/06/06 14:20:24;;;;;;;6.70;5.05;;;;;;;27.20;28.89;100495.64;2155397;81;32282;-70
2021/06/06 14:23:28;;;;;;;3.05;2.75;;;;;;;27.11;29.06;100495.33;2171882;82;33017;-65
2021/06/06 14:26:37;;;;;;;4.47;3.30;;;;;;;27.08;29.28;100502.06;2158182;82;36778;-65